sensor_id;sensor_type;location;lat;lon;timestamp;pressure;altitude;pressure_sealevel;temperature;humidity
50310;BME280;36207;51.850;21.698;2023-09-19T00:00:37;99341.16;;;19.27;69.69
50310;BME280;36207;51.850;21.698;2023-09-19T00:03:23;99341.19;;;19.25;69.27
50310;BME280;36207;51.850;21.698;2023-09-19T00:05:51;99338.10;;;19.24;69.46
50310;BME280;36207;51.850;21.698;2023-09-19T00:08:17;99334.58;;;19.23;69.21
50310;BME280;36207;51.850;21.698;2023-09-19T00:10:47;99332.36;;;19.25;69.16
50310;BME280;36207;51.850;21.698;2023-09-19T00:13:14;99331.65;;;19.28;69.18
50310;BME280;36207;51.850;21.698;2023-09-19T00:15:43;99329.96;;;19.27;69.04
50310;BME280;36207;51.850;21.698;2023-09-19T00:18:14;99332.83;;;19.26;69.05
50310;BME280;36207;51.850;21.698;2023-09-19T00:20:41;99333.39;;;19.24;69.25
50310;BME280;36207;51.850;21.698;2023-09-19T00:23:08;99333.27;;;19.17;69.30
50310;BME280;36207;51.850;21.698;2023-09-19T00:25:35;99331.64;;;19.12;69.20
50310;BME280;36207;51.850;21.698;2023-09-19T00:28:01;99333.11;;;19.10;69.20
50310;BME280;36207;51.850;21.698;2023-09-19T00:30:28;99328.31;;;19.10;69.27
50310;BME280;36207;51.850;21.698;2023-09-19T00:32:54;99329.89;;;19.11;69.04
50310;BME280;36207;51.850;21.698;2023-09-19T00:35:21;99330.00;;;19.07;69.31
50310;BME280;36207;51.850;21.698;2023-09-19T00:37:50;99324.29;;;19.01;68.99
50310;BME280;36207;51.850;21.698;2023-09-19T00:40:16;99326.27;;;18.99;69.15
50310;BME280;36207;51.850;21.698;2023-09-19T00:42:44;99326.88;;;18.96;69.99
50310;BME280;36207;51.850;21.698;2023-09-19T00:45:12;99329.44;;;18.94;69.47
50310;BME280;36207;51.850;21.698;2023-09-19T00:47:44;99321.17;;;18.94;69.81
50310;BME280;36207;51.850;21.698;2023-09-19T00:50:12;99314.55;;;18.92;69.98
50310;BME280;36207;51.850;21.698;2023-09-19T00:52:42;99313.27;;;18.89;70.94
50310;BME280;36207;51.850;21.698;2023-09-19T00:55:09;99310.15;;;18.83;70.66
50310;BME280;36207;51.850;21.698;2023-09-19T00:57:36;99306.94;;;18.81;70.20
50310;BME280;36207;51.850;21.698;2023-09-19T01:00:05;99300.13;;;18.82;70.61
50310;BME280;36207;51.850;21.698;2023-09-19T01:02:34;99301.67;;;18.84;71.10
50310;BME280;36207;51.850;21.698;2023-09-19T01:05:01;99297.91;;;18.82;71.18
50310;BME280;36207;51.850;21.698;2023-09-19T01:07:28;99291.30;;;18.81;70.61
50310;BME280;36207;51.850;21.698;2023-09-19T01:10:02;99291.30;;;18.81;70.64
50310;BME280;36207;51.850;21.698;2023-09-19T01:15:40;99291.64;;;18.78;70.80
50310;BME280;36207;51.850;21.698;2023-09-19T01:31:39;99273.48;;;18.82;70.74
50310;BME280;36207;51.850;21.698;2023-09-19T01:34:05;99268.41;;;18.84;70.76
50310;BME280;36207;51.850;21.698;2023-09-19T01:36:35;99265.32;;;18.85;71.63
50310;BME280;36207;51.850;21.698;2023-09-19T01:39:06;99263.20;;;18.84;71.03
50310;BME280;36207;51.850;21.698;2023-09-19T01:42:03;99257.60;;;18.85;70.95
50310;BME280;36207;51.850;21.698;2023-09-19T01:44:44;99256.73;;;18.85;71.13
50310;BME280;36207;51.850;21.698;2023-09-19T01:47:37;99257.67;;;18.82;71.39
50310;BME280;36207;51.850;21.698;2023-09-19T01:50:31;99253.64;;;18.80;71.24
50310;BME280;36207;51.850;21.698;2023-09-19T01:53:23;99254.14;;;18.78;71.37
50310;BME280;36207;51.850;21.698;2023-09-19T01:55:51;99255.83;;;18.79;71.03
50310;BME280;36207;51.850;21.698;2023-09-19T01:58:30;99253.95;;;18.75;71.95
50310;BME280;36207;51.850;21.698;2023-09-19T02:01:00;99250.09;;;18.70;71.33
50310;BME280;36207;51.850;21.698;2023-09-19T02:03:26;99243.22;;;18.70;71.26
50310;BME280;36207;51.850;21.698;2023-09-19T02:05:54;99238.83;;;18.70;71.09
50310;BME280;36207;51.850;21.698;2023-09-19T02:08:22;99238.39;;;18.70;71.20
50310;BME280;36207;51.850;21.698;2023-09-19T02:10:52;99241.80;;;18.69;71.29
50310;BME280;36207;51.850;21.698;2023-09-19T02:13:19;99239.68;;;18.69;71.30
50310;BME280;36207;51.850;21.698;2023-09-19T02:15:45;99235.71;;;18.68;71.43
50310;BME280;36207;51.850;21.698;2023-09-19T02:18:14;99239.65;;;18.66;71.32
50310;BME280;36207;51.850;21.698;2023-09-19T02:20:41;99238.58;;;18.64;71.45
50310;BME280;36207;51.850;21.698;2023-09-19T02:23:08;99237.57;;;18.61;71.63
50310;BME280;36207;51.850;21.698;2023-09-19T02:25:34;99236.41;;;18.59;71.46
50310;BME280;36207;51.850;21.698;2023-09-19T02:28:05;99237.99;;;18.56;72.09
50310;BME280;36207;51.850;21.698;2023-09-19T02:30:32;99237.08;;;18.52;72.34
50310;BME280;36207;51.850;21.698;2023-09-19T02:32:58;99235.12;;;18.47;72.71
50310;BME280;36207;51.850;21.698;2023-09-19T02:35:28;99230.16;;;18.45;72.71
50310;BME280;36207;51.850;21.698;2023-09-19T02:37:54;99230.28;;;18.45;72.38
50310;BME280;36207;51.850;21.698;2023-09-19T02:40:20;99232.35;;;18.47;72.39
50310;BME280;36207;51.850;21.698;2023-09-19T02:42:48;99231.38;;;18.47;72.66
50310;BME280;36207;51.850;21.698;2023-09-19T02:45:18;99228.73;;;18.50;72.51
50310;BME280;36207;51.850;21.698;2023-09-19T02:47:46;99221.26;;;18.53;72.83
50310;BME280;36207;51.850;21.698;2023-09-19T02:50:13;99219.23;;;18.55;72.83
50310;BME280;36207;51.850;21.698;2023-09-19T02:52:42;99220.14;;;18.55;72.85
50310;BME280;36207;51.850;21.698;2023-09-19T02:55:11;99216.41;;;18.55;72.70
50310;BME280;36207;51.850;21.698;2023-09-19T02:57:38;99210.71;;;18.53;72.40
50310;BME280;36207;51.850;21.698;2023-09-19T03:00:08;99206.29;;;18.54;72.83
50310;BME280;36207;51.850;21.698;2023-09-19T03:02:36;99203.75;;;18.55;72.77
50310;BME280;36207;51.850;21.698;2023-09-19T03:05:05;99200.05;;;18.52;73.38
50310;BME280;36207;51.850;21.698;2023-09-19T03:07:31;99204.05;;;18.49;73.37
50310;BME280;36207;51.850;21.698;2023-09-19T03:09:57;99204.98;;;18.49;72.90
50310;BME280;36207;51.850;21.698;2023-09-19T03:12:23;99202.63;;;18.51;72.73
50310;BME280;36207;51.850;21.698;2023-09-19T03:14:48;99201.80;;;18.50;73.32
50310;BME280;36207;51.850;21.698;2023-09-19T03:17:16;99198.77;;;18.47;73.25
50310;BME280;36207;51.850;21.698;2023-09-19T03:19:42;99201.09;;;18.46;73.28
50310;BME280;36207;51.850;21.698;2023-09-19T03:22:08;99194.09;;;18.44;73.22
50310;BME280;36207;51.850;21.698;2023-09-19T03:24:34;99197.23;;;18.43;73.25
50310;BME280;36207;51.850;21.698;2023-09-19T03:27:02;99191.86;;;18.46;73.05
50310;BME280;36207;51.850;21.698;2023-09-19T03:29:28;99187.80;;;18.50;73.28
50310;BME280;36207;51.850;21.698;2023-09-19T03:31:54;99186.02;;;18.50;73.63
50310;BME280;36207;51.850;21.698;2023-09-19T03:34:21;99184.35;;;18.50;74.22
50310;BME280;36207;51.850;21.698;2023-09-19T03:36:47;99179.23;;;18.47;74.04
50310;BME280;36207;51.850;21.698;2023-09-19T03:39:13;99177.85;;;18.47;73.73
50310;BME280;36207;51.850;21.698;2023-09-19T03:41:41;99179.44;;;18.52;73.58
50310;BME280;36207;51.850;21.698;2023-09-19T03:44:08;99177.20;;;18.54;74.07
50310;BME280;36207;51.850;21.698;2023-09-19T03:46:34;99173.52;;;18.55;73.75
50310;BME280;36207;51.850;21.698;2023-09-19T03:49:01;99172.37;;;18.58;73.69
50310;BME280;36207;51.850;21.698;2023-09-19T03:51:28;99174.13;;;18.60;73.75
50310;BME280;36207;51.850;21.698;2023-09-19T03:53:54;99173.73;;;18.62;74.23
50310;BME280;36207;51.850;21.698;2023-09-19T03:56:20;99166.77;;;18.64;73.62
50310;BME280;36207;51.850;21.698;2023-09-19T03:58:46;99164.78;;;18.69;73.47
50310;BME280;36207;51.850;21.698;2023-09-19T04:01:12;99170.11;;;18.75;73.38
50310;BME280;36207;51.850;21.698;2023-09-19T04:03:39;99169.73;;;18.78;73.46
50310;BME280;36207;51.850;21.698;2023-09-19T04:06:13;99159.87;;;18.78;73.97
50310;BME280;36207;51.850;21.698;2023-09-19T04:08:39;99154.98;;;18.76;73.48
50310;BME280;36207;51.850;21.698;2023-09-19T04:11:05;99149.85;;;18.76;73.88
50310;BME280;36207;51.850;21.698;2023-09-19T04:13:31;99149.89;;;18.72;74.27
50310;BME280;36207;51.850;21.698;2023-09-19T04:15:57;99147.73;;;18.69;74.07
50310;BME280;36207;51.850;21.698;2023-09-19T04:18:23;99148.23;;;18.70;73.79
50310;BME280;36207;51.850;21.698;2023-09-19T04:20:49;99146.48;;;18.73;73.62
50310;BME280;36207;51.850;21.698;2023-09-19T04:23:16;99154.51;;;18.82;73.77
50310;BME280;36207;51.850;21.698;2023-09-19T04:25:43;99153.20;;;18.86;73.47
50310;BME280;36207;51.850;21.698;2023-09-19T04:28:09;99151.50;;;18.89;73.80
50310;BME280;36207;51.850;21.698;2023-09-19T04:30:38;99146.78;;;18.88;73.47
50310;BME280;36207;51.850;21.698;2023-09-19T04:33:08;99140.05;;;18.86;73.48
50310;BME280;36207;51.850;21.698;2023-09-19T04:35:34;99133.00;;;18.85;73.52
50310;BME280;36207;51.850;21.698;2023-09-19T04:38:00;99129.11;;;18.84;73.77
50310;BME280;36207;51.850;21.698;2023-09-19T04:40:27;99129.04;;;18.82;73.68
50310;BME280;36207;51.850;21.698;2023-09-19T04:42:53;99131.80;;;18.77;73.80
50310;BME280;36207;51.850;21.698;2023-09-19T04:45:24;99129.83;;;18.73;74.14
50310;BME280;36207;51.850;21.698;2023-09-19T04:47:50;99127.70;;;18.67;74.17
50310;BME280;36207;51.850;21.698;2023-09-19T04:50:16;99129.69;;;18.65;74.27
50310;BME280;36207;51.850;21.698;2023-09-19T04:52:43;99124.17;;;18.65;74.03
50310;BME280;36207;51.850;21.698;2023-09-19T04:55:11;99126.21;;;18.64;74.28
50310;BME280;36207;51.850;21.698;2023-09-19T04:57:46;99126.08;;;18.62;74.40
50310;BME280;36207;51.850;21.698;2023-09-19T05:00:17;99127.64;;;18.62;74.01
50310;BME280;36207;51.850;21.698;2023-09-19T05:02:46;99123.10;;;18.62;73.90
50310;BME280;36207;51.850;21.698;2023-09-19T05:05:12;99122.75;;;18.63;74.03
50310;BME280;36207;51.850;21.698;2023-09-19T05:07:43;99123.00;;;18.67;74.03
50310;BME280;36207;51.850;21.698;2023-09-19T05:10:09;99118.88;;;18.71;73.91
50310;BME280;36207;51.850;21.698;2023-09-19T05:12:39;99112.48;;;18.78;73.78
50310;BME280;36207;51.850;21.698;2023-09-19T05:15:06;99115.20;;;18.84;73.92
50310;BME280;36207;51.850;21.698;2023-09-19T05:17:36;99118.05;;;18.86;73.73
50310;BME280;36207;51.850;21.698;2023-09-19T05:20:02;99111.11;;;18.91;73.86
50310;BME280;36207;51.850;21.698;2023-09-19T05:22:42;99110.48;;;18.99;73.63
50310;BME280;36207;51.850;21.698;2023-09-19T05:25:09;99107.14;;;19.07;73.58
50310;BME280;36207;51.850;21.698;2023-09-19T05:27:36;99103.42;;;19.08;73.73
50310;BME280;36207;51.850;21.698;2023-09-19T05:30:02;99095.45;;;19.07;73.71
50310;BME280;36207;51.850;21.698;2023-09-19T05:32:28;99099.38;;;19.09;73.53
50310;BME280;36207;51.850;21.698;2023-09-19T05:34:54;99098.73;;;19.11;73.53
50310;BME280;36207;51.850;21.698;2023-09-19T05:37:22;99100.98;;;19.15;73.38
50310;BME280;36207;51.850;21.698;2023-09-19T05:39:49;99102.98;;;19.16;73.31
50310;BME280;36207;51.850;21.698;2023-09-19T05:42:15;99103.21;;;19.22;73.42
50310;BME280;36207;51.850;21.698;2023-09-19T05:44:41;99094.88;;;19.29;73.48
50310;BME280;36207;51.850;21.698;2023-09-19T05:47:07;99094.35;;;19.31;73.20
50310;BME280;36207;51.850;21.698;2023-09-19T05:49:35;99086.53;;;19.34;73.28
50310;BME280;36207;51.850;21.698;2023-09-19T05:52:05;99086.05;;;19.43;73.10
50310;BME280;36207;51.850;21.698;2023-09-19T05:54:32;99088.94;;;19.47;72.93
50310;BME280;36207;51.850;21.698;2023-09-19T05:57:00;99091.17;;;19.55;72.98
50310;BME280;36207;51.850;21.698;2023-09-19T05:59:27;99092.73;;;19.61;72.65
50310;BME280;36207;51.850;21.698;2023-09-19T06:01:53;99092.15;;;19.63;72.53
50310;BME280;36207;51.850;21.698;2023-09-19T06:04:19;99091.16;;;19.66;72.26
50310;BME280;36207;51.850;21.698;2023-09-19T06:06:45;99091.20;;;19.70;72.34
50310;BME280;36207;51.850;21.698;2023-09-19T06:09:14;99089.20;;;19.81;72.64
50310;BME280;36207;51.850;21.698;2023-09-19T06:11:44;99095.84;;;19.88;72.28
50310;BME280;36207;51.850;21.698;2023-09-19T06:14:10;99099.31;;;19.89;71.90
50310;BME280;36207;51.850;21.698;2023-09-19T06:16:36;99094.34;;;19.90;71.82
50310;BME280;36207;51.850;21.698;2023-09-19T06:19:04;99092.86;;;19.88;71.58
50310;BME280;36207;51.850;21.698;2023-09-19T06:21:34;99095.36;;;19.87;71.79
50310;BME280;36207;51.850;21.698;2023-09-19T06:24:00;99094.17;;;19.89;71.74
50310;BME280;36207;51.850;21.698;2023-09-19T06:26:26;99093.33;;;19.93;71.76
50310;BME280;36207;51.850;21.698;2023-09-19T06:28:56;99093.78;;;19.97;71.54
50310;BME280;36207;51.850;21.698;2023-09-19T06:31:23;99100.46;;;19.98;71.29
50310;BME280;36207;51.850;21.698;2023-09-19T06:33:52;99112.16;;;19.98;71.30
50310;BME280;36207;51.850;21.698;2023-09-19T06:36:18;99119.29;;;20.00;71.15
50310;BME280;36207;51.850;21.698;2023-09-19T06:38:45;99112.98;;;19.99;70.88
50310;BME280;36207;51.850;21.698;2023-09-19T06:41:11;99113.67;;;19.96;71.01
50310;BME280;36207;51.850;21.698;2023-09-19T06:43:37;99106.95;;;19.95;70.92
50310;BME280;36207;51.850;21.698;2023-09-19T06:46:04;99106.55;;;19.94;70.80
50310;BME280;36207;51.850;21.698;2023-09-19T06:48:32;99103.80;;;19.95;70.76
50310;BME280;36207;51.850;21.698;2023-09-19T06:50:59;99098.23;;;19.99;70.86
50310;BME280;36207;51.850;21.698;2023-09-19T06:53:32;99096.73;;;20.02;70.93
50310;BME280;36207;51.850;21.698;2023-09-19T06:55:58;99092.95;;;20.02;70.48
50310;BME280;36207;51.850;21.698;2023-09-19T06:58:24;99100.69;;;20.01;70.64
50310;BME280;36207;51.850;21.698;2023-09-19T07:00:50;99103.45;;;20.01;70.40
50310;BME280;36207;51.850;21.698;2023-09-19T07:03:16;99103.78;;;20.01;70.43
50310;BME280;36207;51.850;21.698;2023-09-19T07:05:44;99110.88;;;20.01;70.36
50310;BME280;36207;51.850;21.698;2023-09-19T07:08:10;99123.42;;;19.97;70.10
50310;BME280;36207;51.850;21.698;2023-09-19T07:10:38;99131.38;;;19.94;70.35
50310;BME280;36207;51.850;21.698;2023-09-19T07:13:14;99128.63;;;19.96;70.64
50310;BME280;36207;51.850;21.698;2023-09-19T07:15:43;99132.64;;;19.97;70.30
50310;BME280;36207;51.850;21.698;2023-09-19T07:18:16;99133.69;;;19.93;70.31
50310;BME280;36207;51.850;21.698;2023-09-19T07:20:44;99133.31;;;19.91;70.41
50310;BME280;36207;51.850;21.698;2023-09-19T07:23:20;99133.44;;;19.94;70.24
50310;BME280;36207;51.850;21.698;2023-09-19T07:25:48;99134.11;;;19.98;70.36
50310;BME280;36207;51.850;21.698;2023-09-19T07:28:15;99138.73;;;20.00;70.29
50310;BME280;36207;51.850;21.698;2023-09-19T07:30:41;99140.52;;;19.99;70.10
50310;BME280;36207;51.850;21.698;2023-09-19T07:33:07;99143.05;;;19.97;70.17
50310;BME280;36207;51.850;21.698;2023-09-19T07:35:37;99145.20;;;19.96;70.44
50310;BME280;36207;51.850;21.698;2023-09-19T07:38:07;99144.45;;;19.96;70.51
50310;BME280;36207;51.850;21.698;2023-09-19T07:40:33;99146.76;;;20.01;70.51
50310;BME280;36207;51.850;21.698;2023-09-19T07:43:00;99148.20;;;20.06;70.64
50310;BME280;36207;51.850;21.698;2023-09-19T07:45:30;99147.36;;;20.13;70.41
50310;BME280;36207;51.850;21.698;2023-09-19T07:47:57;99146.11;;;20.19;70.29
50310;BME280;36207;51.850;21.698;2023-09-19T07:50:23;99147.19;;;20.22;70.37
50310;BME280;36207;51.850;21.698;2023-09-19T07:52:50;99148.34;;;20.25;70.15
50310;BME280;36207;51.850;21.698;2023-09-19T07:55:20;99145.36;;;20.23;70.07
50310;BME280;36207;51.850;21.698;2023-09-19T07:57:49;99147.08;;;20.22;70.11
50310;BME280;36207;51.850;21.698;2023-09-19T08:00:15;99142.42;;;20.22;70.16
50310;BME280;36207;51.850;21.698;2023-09-19T08:02:42;99144.27;;;20.23;70.26
50310;BME280;36207;51.850;21.698;2023-09-19T08:05:10;99141.52;;;20.25;70.14
50310;BME280;36207;51.850;21.698;2023-09-19T08:07:40;99145.21;;;20.28;70.18
50310;BME280;36207;51.850;21.698;2023-09-19T08:10:08;99147.77;;;20.30;70.11
50310;BME280;36207;51.850;21.698;2023-09-19T08:12:39;99147.98;;;20.29;70.22
50310;BME280;36207;51.850;21.698;2023-09-19T08:15:16;99144.24;;;20.29;70.14
50310;BME280;36207;51.850;21.698;2023-09-19T08:17:43;99146.65;;;20.31;70.14
50310;BME280;36207;51.850;21.698;2023-09-19T08:20:10;99148.61;;;20.36;70.20
50310;BME280;36207;51.850;21.698;2023-09-19T08:22:51;99149.44;;;20.38;70.24
50310;BME280;36207;51.850;21.698;2023-09-19T08:25:18;99151.52;;;20.40;70.28
50310;BME280;36207;51.850;21.698;2023-09-19T08:27:48;99147.23;;;20.41;70.35
50310;BME280;36207;51.850;21.698;2023-09-19T08:30:19;99150.61;;;20.45;70.50
50310;BME280;36207;51.850;21.698;2023-09-19T08:32:50;99154.18;;;20.46;70.25
50310;BME280;36207;51.850;21.698;2023-09-19T08:35:16;99151.48;;;20.47;70.36
50310;BME280;36207;51.850;21.698;2023-09-19T08:37:42;99153.42;;;20.47;70.47
50310;BME280;36207;51.850;21.698;2023-09-19T08:40:11;99154.34;;;20.44;70.44
50310;BME280;36207;51.850;21.698;2023-09-19T08:43:07;99160.80;;;20.44;70.40
50310;BME280;36207;51.850;21.698;2023-09-19T08:45:34;99160.42;;;20.46;70.65
50310;BME280;36207;51.850;21.698;2023-09-19T08:48:23;99155.44;;;20.47;70.64
50310;BME280;36207;51.850;21.698;2023-09-19T08:50:58;99154.23;;;20.53;70.82
50310;BME280;36207;51.850;21.698;2023-09-19T08:56:00;99156.58;;;20.70;70.61
50310;BME280;36207;51.850;21.698;2023-09-19T08:58:36;99158.67;;;20.73;70.59
50310;BME280;36207;51.850;21.698;2023-09-19T09:01:07;99160.02;;;20.74;70.57
50310;BME280;36207;51.850;21.698;2023-09-19T09:03:34;99165.77;;;20.74;70.37
50310;BME280;36207;51.850;21.698;2023-09-19T09:06:01;99167.39;;;20.72;70.21
50310;BME280;36207;51.850;21.698;2023-09-19T09:08:30;99160.71;;;20.71;70.39
50310;BME280;36207;51.850;21.698;2023-09-19T09:10:57;99165.86;;;20.68;70.10
50310;BME280;36207;51.850;21.698;2023-09-19T09:13:24;99166.77;;;20.64;70.13
50310;BME280;36207;51.850;21.698;2023-09-19T09:15:52;99169.67;;;20.59;70.26
50310;BME280;36207;51.850;21.698;2023-09-19T09:18:20;99172.38;;;20.58;70.34
50310;BME280;36207;51.850;21.698;2023-09-19T09:20:46;99181.08;;;20.59;70.22
50310;BME280;36207;51.850;21.698;2023-09-19T09:23:13;99183.73;;;20.61;70.41
50310;BME280;36207;51.850;21.698;2023-09-19T09:25:52;99180.58;;;20.59;70.28
50310;BME280;36207;51.850;21.698;2023-09-19T09:28:30;99182.04;;;20.56;70.65
50310;BME280;36207;51.850;21.698;2023-09-19T09:31:05;99188.38;;;20.50;70.57
50310;BME280;36207;51.850;21.698;2023-09-19T09:33:35;99192.80;;;20.45;70.79
50310;BME280;36207;51.850;21.698;2023-09-19T09:36:02;99194.32;;;20.44;70.85
50310;BME280;36207;51.850;21.698;2023-09-19T09:38:49;99193.88;;;20.45;70.59
50310;BME280;36207;51.850;21.698;2023-09-19T09:41:16;99193.69;;;20.50;70.61
50310;BME280;36207;51.850;21.698;2023-09-19T09:43:53;99199.01;;;20.56;70.70
50310;BME280;36207;51.850;21.698;2023-09-19T09:46:21;99200.70;;;20.60;70.57
50310;BME280;36207;51.850;21.698;2023-09-19T09:48:48;99198.17;;;20.62;70.57
50310;BME280;36207;51.850;21.698;2023-09-19T09:51:41;99202.14;;;20.62;70.50
50310;BME280;36207;51.850;21.698;2023-09-19T09:54:24;99202.40;;;20.62;70.47
50310;BME280;36207;51.850;21.698;2023-09-19T09:56:58;99205.74;;;20.68;70.51
50310;BME280;36207;51.850;21.698;2023-09-19T09:59:54;99206.23;;;20.73;70.51
50310;BME280;36207;51.850;21.698;2023-09-19T10:02:29;99202.93;;;20.72;70.42
50310;BME280;36207;51.850;21.698;2023-09-19T10:04:59;99204.05;;;20.67;70.36
50310;BME280;36207;51.850;21.698;2023-09-19T10:07:49;99201.45;;;20.67;70.23
50310;BME280;36207;51.850;21.698;2023-09-19T10:10:32;99207.41;;;20.67;70.45
50310;BME280;36207;51.850;21.698;2023-09-19T10:13:14;99209.84;;;20.67;70.52
50310;BME280;36207;51.850;21.698;2023-09-19T10:15:51;99207.91;;;20.69;70.53
50310;BME280;36207;51.850;21.698;2023-09-19T10:18:21;99206.46;;;20.73;70.53
50310;BME280;36207;51.850;21.698;2023-09-19T10:20:47;99209.09;;;20.80;70.61
50310;BME280;36207;51.850;21.698;2023-09-19T10:23:17;99210.67;;;20.85;70.48
50310;BME280;36207;51.850;21.698;2023-09-19T10:25:48;99207.88;;;20.87;70.60
50310;BME280;36207;51.850;21.698;2023-09-19T10:28:16;99211.55;;;20.89;70.57
50310;BME280;36207;51.850;21.698;2023-09-19T10:30:48;99211.73;;;20.91;70.84
50310;BME280;36207;51.850;21.698;2023-09-19T10:33:17;99215.11;;;20.94;70.68
50310;BME280;36207;51.850;21.698;2023-09-19T10:35:50;99215.17;;;20.96;70.85
50310;BME280;36207;51.850;21.698;2023-09-19T10:38:27;99215.81;;;20.94;70.98
50310;BME280;36207;51.850;21.698;2023-09-19T10:40:55;99216.57;;;20.91;70.88
50310;BME280;36207;51.850;21.698;2023-09-19T10:43:29;99220.41;;;20.92;71.00
50310;BME280;36207;51.850;21.698;2023-09-19T10:46:01;99222.83;;;20.95;71.09
50310;BME280;36207;51.850;21.698;2023-09-19T10:48:29;99222.70;;;20.96;71.14
50310;BME280;36207;51.850;21.698;2023-09-19T10:53:28;99228.90;;;20.96;71.29
50310;BME280;36207;51.850;21.698;2023-09-19T10:55:59;99230.84;;;20.94;71.45
50310;BME280;36207;51.850;21.698;2023-09-19T10:58:31;99234.48;;;20.93;71.37
50310;BME280;36207;51.850;21.698;2023-09-19T11:01:00;99231.06;;;20.93;71.32
50310;BME280;36207;51.850;21.698;2023-09-19T11:03:38;99233.08;;;20.93;71.37
50310;BME280;36207;51.850;21.698;2023-09-19T11:06:14;99235.35;;;20.93;71.45
50310;BME280;36207;51.850;21.698;2023-09-19T11:09:02;99236.50;;;20.95;71.59
50310;BME280;36207;51.850;21.698;2023-09-19T11:11:45;99233.20;;;20.97;71.73
50310;BME280;36207;51.850;21.698;2023-09-19T11:30:49;99231.77;;;21.10;71.97
50310;BME280;36207;51.850;21.698;2023-09-19T11:49:28;99232.23;;;21.08;72.42
50310;BME280;36207;51.850;21.698;2023-09-19T11:52:00;99230.98;;;21.08;72.28
50310;BME280;36207;51.850;21.698;2023-09-19T11:54:35;99228.71;;;21.08;72.12
50310;BME280;36207;51.850;21.698;2023-09-19T11:57:05;99230.07;;;21.08;72.30
50310;BME280;36207;51.850;21.698;2023-09-19T11:59:32;99231.15;;;21.08;72.44
50310;BME280;36207;51.850;21.698;2023-09-19T12:02:06;99229.92;;;21.09;72.50
50310;BME280;36207;51.850;21.698;2023-09-19T12:04:38;99229.91;;;21.08;72.56
50310;BME280;36207;51.850;21.698;2023-09-19T12:07:12;99233.87;;;21.08;72.61
50310;BME280;36207;51.850;21.698;2023-09-19T12:09:46;99233.55;;;21.07;72.59
50310;BME280;36207;51.850;21.698;2023-09-19T12:12:26;99233.27;;;21.07;72.63
50310;BME280;36207;51.850;21.698;2023-09-19T12:14:59;99235.02;;;21.07;72.80
50310;BME280;36207;51.850;21.698;2023-09-19T12:17:36;99235.02;;;21.06;72.88
50310;BME280;36207;51.850;21.698;2023-09-19T12:20:03;99234.63;;;21.03;73.23
50310;BME280;36207;51.850;21.698;2023-09-19T12:22:46;99236.61;;;21.00;73.28
50310;BME280;36207;51.850;21.698;2023-09-19T12:25:13;99244.16;;;20.98;73.39
50310;BME280;36207;51.850;21.698;2023-09-19T12:30:10;99247.72;;;20.92;73.51
50310;BME280;36207;51.850;21.698;2023-09-19T12:32:40;99250.58;;;20.89;73.51
50310;BME280;36207;51.850;21.698;2023-09-19T12:35:08;99252.75;;;20.87;73.45
50310;BME280;36207;51.850;21.698;2023-09-19T12:37:43;99251.22;;;20.82;73.61
50310;BME280;36207;51.850;21.698;2023-09-19T12:40:14;99256.76;;;20.74;73.96
50310;BME280;36207;51.850;21.698;2023-09-19T12:42:44;99258.47;;;20.67;74.06
50310;BME280;36207;51.850;21.698;2023-09-19T12:45:11;99262.51;;;20.62;74.18
50310;BME280;36207;51.850;21.698;2023-09-19T12:53:45;99271.71;;;20.45;74.61
50310;BME280;36207;51.850;21.698;2023-09-19T12:56:16;99275.42;;;20.40;74.66
50310;BME280;36207;51.850;21.698;2023-09-19T12:58:57;99277.52;;;20.36;74.80
50310;BME280;36207;51.850;21.698;2023-09-19T13:01:25;99278.26;;;20.33;74.85
50310;BME280;36207;51.850;21.698;2023-09-19T13:06:47;99280.34;;;20.28;74.84
50310;BME280;36207;51.850;21.698;2023-09-19T13:09:15;99284.35;;;20.29;74.73
50310;BME280;36207;51.850;21.698;2023-09-19T13:11:43;99285.60;;;20.29;74.95
50310;BME280;36207;51.850;21.698;2023-09-19T13:17:01;99287.02;;;20.29;75.24
50310;BME280;36207;51.850;21.698;2023-09-19T13:22:40;99291.94;;;20.29;75.32
50310;BME280;36207;51.850;21.698;2023-09-19T13:25:18;99296.61;;;20.29;75.31
50310;BME280;36207;51.850;21.698;2023-09-19T13:27:55;99298.39;;;20.27;75.51
50310;BME280;36207;51.850;21.698;2023-09-19T13:30:28;99298.90;;;20.23;75.35
50310;BME280;36207;51.850;21.698;2023-09-19T13:33:09;99301.22;;;20.22;75.62
50310;BME280;36207;51.850;21.698;2023-09-19T13:35:36;99306.31;;;20.22;75.70
50310;BME280;36207;51.850;21.698;2023-09-19T13:38:04;99304.84;;;20.21;75.96
50310;BME280;36207;51.850;21.698;2023-09-19T13:40:30;99308.03;;;20.20;75.88
50310;BME280;36207;51.850;21.698;2023-09-19T13:43:01;99301.84;;;20.17;75.99
50310;BME280;36207;51.850;21.698;2023-09-19T13:45:27;99304.65;;;20.17;76.05
50310;BME280;36207;51.850;21.698;2023-09-19T13:47:56;99304.15;;;20.17;76.21
50310;BME280;36207;51.850;21.698;2023-09-19T13:50:23;99303.56;;;20.17;76.25
50310;BME280;36207;51.850;21.698;2023-09-19T13:52:51;99305.80;;;20.17;76.12
50310;BME280;36207;51.850;21.698;2023-09-19T13:55:17;99305.29;;;20.17;76.15
50310;BME280;36207;51.850;21.698;2023-09-19T13:57:47;99309.03;;;20.17;76.12
50310;BME280;36207;51.850;21.698;2023-09-19T14:00:16;99311.15;;;20.17;76.41
50310;BME280;36207;51.850;21.698;2023-09-19T14:02:43;99308.87;;;20.17;76.06
50310;BME280;36207;51.850;21.698;2023-09-19T14:05:12;99312.45;;;20.17;76.22
50310;BME280;36207;51.850;21.698;2023-09-19T14:07:43;99313.38;;;20.18;76.16
50310;BME280;36207;51.850;21.698;2023-09-19T14:10:11;99317.52;;;20.19;76.18
50310;BME280;36207;51.850;21.698;2023-09-19T14:12:40;99316.98;;;20.20;76.47
50310;BME280;36207;51.850;21.698;2023-09-19T14:15:10;99315.04;;;20.21;76.81